Time;durP1;ratioP1;P1;durP2;ratioP2;P2;SDS_P1;SDS_P2;PMS_P1;PMS_P2;Temp;Humidity;BMP_temperature;BMP_pressure;BME280_temperature;BME280_humidity;BME280_pressure;Samples;Min_cycle;Max_cycle;Signal;HPM_P1;HPM_P2
2022/03/25 00:01:46;;;;;;;0.97;0.97;;;7.90;51.70;;;;;;5054265;28;20217;-63
2022/03/25 00:04:11;;;;;;;0.40;0.40;;;7.90;51.80;;;;;;5055791;28;20206;-64
2022/03/25 00:06:37;;;;;;;0.40;0.40;;;7.80;52.00;;;;;;5055637;28;20547;-64
2022/03/25 00:09:03;;;;;;;0.40;0.40;;;7.80;52.00;;;;;;5055730;28;20185;-64
2022/03/25 00:11:28;;;;;;;3.17;3.03;;;7.80;51.70;;;;;;5055434;28;20265;-65
2022/03/25 00:13:54;;;;;;;0.40;0.40;;;7.80;52.00;;;;;;5055616;28;20204;-64
2022/03/25 00:16:20;;;;;;;0.40;0.40;;;7.90;52.10;;;;;;5055435;28;20186;-65
2022/03/25 00:18:45;;;;;;;0.40;0.40;;;7.90;52.10;;;;;;5055601;28;20221;-65
2022/03/25 00:21:11;;;;;;;0.40;0.40;;;7.80;52.00;;;;;;5055612;28;20624;-64
2022/03/25 00:23:37;;;;;;;0.90;0.90;;;7.60;52.00;;;;;;5055475;28;20186;-65
2022/03/25 00:26:03;;;;;;;0.40;0.40;;;7.70;52.20;;;;;;5055444;28;20249;-64
2022/03/25 00:28:29;;;;;;;0.50;0.50;;;7.60;52.00;;;;;;5055216;28;20262;-64
2022/03/25 00:30:55;;;;;;;0.40;0.40;;;7.50;52.00;;;;;;5055371;28;20213;-64
2022/03/25 00:33:20;;;;;;;0.40;0.40;;;7.50;52.40;;;;;;5055515;28;20189;-64
2022/03/25 00:35:46;;;;;;;0.40;0.40;;;7.50;52.30;;;;;;5055207;28;20198;-65
2022/03/25 00:38:12;;;;;;;0.37;0.37;;;7.60;52.40;;;;;;5055007;28;20672;-64
2022/03/25 00:40:38;;;;;;;0.90;0.90;;;7.50;52.00;;;;;;5054939;28;20459;-64
2022/03/25 00:43:03;;;;;;;0.60;0.60;;;7.40;52.30;;;;;;5055148;28;20171;-65
2022/03/25 00:45:29;;;;;;;0.40;0.40;;;7.40;52.00;;;;;;5054973;28;20644;-65
2022/03/25 00:47:58;;;;;;;0.40;0.40;;;7.50;51.60;;;;;;5054815;28;20221;-65
2022/03/25 00:50:24;;;;;;;0.40;0.40;;;7.50;52.20;;;;;;5054640;28;20170;-65
2022/03/25 00:52:50;;;;;;;0.40;0.40;;;7.50;52.40;;;;;;5053436;28;20232;-64
2022/03/25 00:55:16;;;;;;;0.30;0.30;;;7.50;51.80;;;;;;5053696;28;20412;-65
2022/03/25 00:57:42;;;;;;;0.40;0.40;;;7.50;51.40;;;;;;5054673;28;20664;-64
2022/03/25 01:00:08;;;;;;;0.80;0.80;;;7.40;52.20;;;;;;5054597;28;20178;-64
2022/03/25 01:02:34;;;;;;;1.35;1.25;;;7.40;51.80;;;;;;5054878;28;20261;-64
2022/03/25 01:05:00;;;;;;;0.30;0.30;;;7.40;51.40;;;;;;5054708;28;20267;-64
2022/03/25 01:07:26;;;;;;;0.40;0.40;;;7.30;51.80;;;;;;5054459;28;20186;-64
2022/03/25 01:09:52;;;;;;;1.03;0.97;;;7.40;52.90;;;;;;5054684;28;20296;-65
2022/03/25 01:12:19;;;;;;;0.40;0.40;;;7.20;52.80;;;;;;5054228;28;20659;-65
2022/03/25 01:14:45;;;;;;;0.75;0.75;;;7.20;53.30;;;;;;5054455;28;20229;-65
2022/03/25 01:17:10;;;;;;;0.30;0.30;;;7.20;53.20;;;;;;5054264;28;20239;-64
2022/03/25 01:19:36;;;;;;;1.50;1.40;;;7.20;53.20;;;;;;5054494;28;20166;-64
2022/03/25 01:22:03;;;;;;;0.40;0.40;;;7.10;52.90;;;;;;5054211;28;20166;-65
2022/03/25 01:24:29;;;;;;;0.70;0.70;;;7.10;52.70;;;;;;5054378;28;20292;-64
2022/03/25 01:26:54;;;;;;;0.30;0.30;;;7.20;53.30;;;;;;5054269;28;20202;-64
2022/03/25 01:29:21;;;;;;;0.30;0.30;;;7.10;53.30;;;;;;5054151;28;20485;-64
2022/03/25 01:31:47;;;;;;;0.80;0.80;;;7.00;53.30;;;;;;5053931;28;20170;-65
2022/03/25 01:34:12;;;;;;;0.40;0.40;;;7.10;53.90;;;;;;5054163;28;20206;-65
2022/03/25 01:36:38;;;;;;;1.87;1.80;;;7.00;54.20;;;;;;5053972;28;20551;-64
2022/03/25 01:39:04;;;;;;;0.30;0.30;;;7.00;53.80;;;;;;5054138;28;20518;-65
2022/03/25 01:41:29;;;;;;;0.37;0.37;;;6.80;53.30;;;;;;5053691;28;20195;-64
2022/03/25 01:43:57;;;;;;;0.40;0.40;;;6.80;53.20;;;;;;5053824;28;20170;-63
2022/03/25 01:46:24;;;;;;;1.17;1.08;;;6.80;53.30;;;;;;5053739;28;20193;-64
2022/03/25 01:48:50;;;;;;;0.40;0.40;;;6.90;54.00;;;;;;5053946;28;20178;-65
2022/03/25 01:51:26;;;;;;;0.40;0.40;;;6.80;54.40;;;;;;5053577;28;20182;-65
2022/03/25 01:53:52;;;;;;;0.40;0.40;;;6.80;54.60;;;;;;5053670;28;20202;-65
2022/03/25 01:56:22;;;;;;;0.40;0.40;;;6.90;54.70;;;;;;5053660;28;20699;-65
2022/03/25 01:58:48;;;;;;;0.40;0.40;;;6.70;54.30;;;;;;5053558;28;20249;-65
2022/03/25 02:01:14;;;;;;;0.30;0.30;;;6.50;55.30;;;;;;5053462;28;20189;-64
2022/03/25 02:03:40;;;;;;;0.70;0.70;;;6.50;55.50;;;;;;5053595;28;20201;-65
2022/03/25 02:06:06;;;;;;;0.30;0.30;;;6.50;55.30;;;;;;5053568;28;20178;-65
2022/03/25 02:08:32;;;;;;;0.40;0.40;;;6.60;55.40;;;;;;5053411;28;20400;-64
2022/03/25 02:10:59;;;;;;;0.40;0.40;;;6.70;55.30;;;;;;5053250;28;20427;-64
2022/03/25 02:13:25;;;;;;;0.30;0.30;;;6.80;55.10;;;;;;5053319;28;20233;-63
2022/03/25 02:15:52;;;;;;;0.40;0.40;;;6.70;54.70;;;;;;5053399;28;20180;-65
2022/03/25 02:18:20;;;;;;;0.60;0.60;;;6.60;55.10;;;;;;5053531;28;20189;-65
2022/03/25 02:20:48;;;;;;;0.88;0.68;;;6.60;55.20;;;;;;5053104;28;20190;-64
2022/03/25 02:23:15;;;;;;;0.40;0.40;;;6.70;55.50;;;;;;5053200;28;20174;-64
2022/03/25 02:25:42;;;;;;;0.40;0.40;;;6.70;55.50;;;;;;5051216;28;20178;-65
2022/03/25 02:28:08;;;;;;;0.40;0.40;;;6.70;55.30;;;;;;5053261;28;20190;-64
2022/03/25 02:30:35;;;;;;;0.30;0.30;;;6.70;55.30;;;;;;5053184;28;20178;-65
2022/03/25 02:33:02;;;;;;;0.40;0.40;;;6.50;55.30;;;;;;5053266;28;20174;-63
2022/03/25 02:35:42;;;;;;;0.35;0.35;;;6.50;55.90;;;;;;5053297;28;20177;-64
2022/03/25 02:38:09;;;;;;;0.40;0.40;;;6.40;56.00;;;;;;5053141;28;20535;-65
2022/03/25 02:40:35;;;;;;;1.40;1.40;;;6.40;56.20;;;;;;5053107;28;20527;-64
2022/03/25 02:43:01;;;;;;;0.37;0.37;;;6.40;56.20;;;;;;5053166;28;20254;-64
2022/03/25 02:45:27;;;;;;;0.40;0.40;;;6.40;55.90;;;;;;5053291;28;20173;-64
2022/03/25 02:47:52;;;;;;;2.97;2.87;;;6.30;55.80;;;;;;5053105;28;20566;-64
2022/03/25 02:50:18;;;;;;;0.30;0.30;;;6.40;55.90;;;;;;5053106;28;20167;-64
2022/03/25 02:52:44;;;;;;;0.40;0.40;;;6.40;56.20;;;;;;5053129;28;20171;-64
2022/03/25 02:55:10;;;;;;;0.40;0.40;;;6.30;55.70;;;;;;5053213;28;20170;-64
2022/03/25 02:57:36;;;;;;;0.30;0.30;;;6.40;56.00;;;;;;5052959;28;20219;-64
2022/03/25 03:00:07;;;;;;;0.32;0.32;;;6.40;55.90;;;;;;5052701;28;20263;-64
2022/03/25 03:02:34;;;;;;;0.40;0.40;;;6.50;55.80;;;;;;5053008;28;20689;-64
2022/03/25 03:04:59;;;;;;;0.40;0.40;;;6.50;55.30;;;;;;5052793;28;20182;-64
2022/03/25 03:07:25;;;;;;;0.40;0.40;;;6.50;55.10;;;;;;5052819;28;20194;-65
2022/03/25 03:09:51;;;;;;;0.60;0.60;;;6.40;55.80;;;;;;5052879;28;20300;-64
2022/03/25 03:12:16;;;;;;;0.40;0.40;;;6.30;56.80;;;;;;5052741;28;20636;-64
2022/03/25 03:14:42;;;;;;;0.40;0.40;;;6.20;57.00;;;;;;5052834;28;20316;-64
2022/03/25 03:17:10;;;;;;;0.40;0.40;;;6.10;57.30;;;;;;5052879;28;20188;-64
2022/03/25 03:19:36;;;;;;;0.40;0.40;;;6.00;57.40;;;;;;5052772;28;20165;-65
2022/03/25 03:22:01;;;;;;;0.40;0.40;;;6.10;57.50;;;;;;5052582;28;20174;-64
2022/03/25 03:24:27;;;;;;;0.40;0.40;;;6.00;57.20;;;;;;5052778;28;20174;-63
2022/03/25 03:26:53;;;;;;;0.40;0.40;;;6.10;57.30;;;;;;5052601;28;20217;-65
2022/03/25 03:29:20;;;;;;;0.50;0.50;;;6.00;57.40;;;;;;5052694;28;20184;-63
2022/03/25 03:31:46;;;;;;;0.93;0.93;;;6.00;57.30;;;;;;5052417;28;20261;-64
2022/03/25 03:34:12;;;;;;;0.40;0.40;;;6.00;57.60;;;;;;5052486;28;20550;-64
2022/03/25 03:36:38;;;;;;;0.30;0.30;;;6.10;57.30;;;;;;5054509;28;20188;-64
2022/03/25 03:39:04;;;;;;;0.40;0.40;;;6.20;57.10;;;;;;5056220;28;20158;-64
2022/03/25 03:41:29;;;;;;;0.40;0.40;;;6.10;57.40;;;;;;5055955;28;20204;-64
2022/03/25 03:43:55;;;;;;;0.40;0.40;;;6.10;57.50;;;;;;5056274;28;20413;-64
2022/03/25 03:46:21;;;;;;;0.30;0.30;;;6.10;57.50;;;;;;5056213;28;20555;-64
2022/03/25 03:48:46;;;;;;;0.40;0.40;;;6.00;57.70;;;;;;5056528;28;20181;-64
2022/03/25 03:51:12;;;;;;;0.40;0.40;;;5.90;58.10;;;;;;5055907;28;20690;-65
2022/03/25 03:53:38;;;;;;;0.40;0.40;;;5.90;58.60;;;;;;5056040;28;20213;-64
2022/03/25 03:56:04;;;;;;;0.40;0.40;;;5.80;59.00;;;;;;5055952;28;20174;-64
2022/03/25 03:58:30;;;;;;;0.93;0.93;;;5.80;58.50;;;;;;5055863;28;20568;-65
2022/03/25 04:00:55;;;;;;;0.40;0.40;;;5.90;58.40;;;;;;5055538;28;20264;-65
2022/03/25 04:03:21;;;;;;;0.40;0.40;;;6.00;58.30;;;;;;5055741;28;20227;-65
2022/03/25 04:05:46;;;;;;;0.33;0.33;;;5.90;58.40;;;;;;5056017;28;20208;-65
2022/03/25 04:08:12;;;;;;;0.40;0.40;;;5.90;58.60;;;;;;5055525;28;20629;-65
2022/03/25 04:10:38;;;;;;;0.40;0.40;;;5.90;58.10;;;;;;5055649;28;20209;-65
2022/03/25 04:13:04;;;;;;;0.50;0.50;;;6.00;58.20;;;;;;5055752;28;20171;-64
2022/03/25 04:15:31;;;;;;;0.40;0.40;;;6.00;58.00;;;;;;5055658;28;20431;-65
2022/03/25 04:17:56;;;;;;;0.38;0.38;;;6.00;58.00;;;;;;5055240;28;20189;-64
2022/03/25 04:20:22;;;;;;;0.40;0.40;;;6.00;58.20;;;;;;5055638;28;20169;-65
2022/03/25 04:22:48;;;;;;;0.40;0.40;;;6.00;58.00;;;;;;5055396;28;20173;-64
2022/03/25 04:25:14;;;;;;;0.60;0.60;;;6.10;58.10;;;;;;5055516;28;20197;-64
2022/03/25 04:27:49;;;;;;;0.30;0.30;;;6.10;58.10;;;;;;5055414;28;20312;-65
2022/03/25 04:30:18;;;;;;;0.40;0.40;;;6.00;58.00;;;;;;5055076;28;20594;-65
2022/03/25 04:32:44;;;;;;;0.30;0.30;;;6.00;58.10;;;;;;5055238;28;20172;-64
2022/03/25 04:35:09;;;;;;;0.30;0.30;;;6.10;58.30;;;;;;5055133;28;20202;-63
2022/03/25 04:37:35;;;;;;;0.30;0.30;;;6.10;58.10;;;;;;5054877;28;20280;-63
2022/03/25 04:40:02;;;;;;;0.33;0.33;;;6.00;57.90;;;;;;5055019;28;20173;-64
2022/03/25 04:42:28;;;;;;;0.40;0.40;;;6.10;58.10;;;;;;5055255;28;20567;-64
2022/03/25 04:44:53;;;;;;;0.35;0.35;;;6.00;58.10;;;;;;5054988;28;20236;-64
2022/03/25 04:47:19;;;;;;;0.30;0.30;;;6.10;58.10;;;;;;5054136;28;20185;-65
2022/03/25 04:49:44;;;;;;;0.40;0.40;;;6.10;58.40;;;;;;5054922;28;20584;-64
2022/03/25 04:52:10;;;;;;;0.40;0.40;;;6.20;58.50;;;;;;5054519;28;20177;-65
2022/03/25 04:54:36;;;;;;;0.33;0.33;;;6.10;58.30;;;;;;5054742;28;20229;-64
2022/03/25 04:57:03;;;;;;;0.68;0.68;;;6.20;58.40;;;;;;5054869;28;20685;-65
2022/03/25 04:59:28;;;;;;;0.40;0.40;;;6.00;58.20;;;;;;5054868;28;20219;-64
2022/03/25 05:01:55;;;;;;;0.30;0.30;;;6.10;58.10;;;;;;5054452;28;20691;-65
2022/03/25 05:04:21;;;;;;;0.30;0.30;;;6.10;58.40;;;;;;5054829;28;20219;-65
2022/03/25 05:06:47;;;;;;;0.30;0.30;;;6.00;58.40;;;;;;5054633;28;20197;-65
2022/03/25 05:09:13;;;;;;;0.30;0.30;;;5.90;58.80;;;;;;5054507;28;20172;-65
2022/03/25 05:11:40;;;;;;;0.40;0.40;;;5.80;59.10;;;;;;5054298;28;20673;-65
2022/03/25 05:14:06;;;;;;;0.30;0.30;;;5.80;59.20;;;;;;5054312;28;20757;-64
2022/03/25 05:16:32;;;;;;;0.40;0.40;;;5.80;58.90;;;;;;5054331;28;20228;-65
2022/03/25 05:18:57;;;;;;;0.30;0.30;;;5.90;59.00;;;;;;5053067;28;20182;-64
2022/03/25 05:21:23;;;;;;;0.40;0.40;;;5.90;59.10;;;;;;5052951;28;20415;-65
2022/03/25 05:23:49;;;;;;;0.40;0.40;;;5.90;59.40;;;;;;5054197;28;20206;-65
2022/03/25 05:26:15;;;;;;;0.40;0.40;;;5.90;59.20;;;;;;5054321;28;20256;-64
2022/03/25 05:28:40;;;;;;;0.30;0.30;;;5.90;58.80;;;;;;5054091;28;20166;-64
2022/03/25 05:31:06;;;;;;;0.30;0.30;;;6.00;58.40;;;;;;5053979;28;20509;-64
2022/03/25 05:33:32;;;;;;;0.40;0.40;;;6.10;58.60;;;;;;5052764;28;20238;-65
2022/03/25 05:35:57;;;;;;;1.13;1.13;;;6.10;58.90;;;;;;5054114;28;20158;-64
2022/03/25 05:38:23;;;;;;;1.33;1.13;;;6.00;59.20;;;;;;5053945;28;20174;-64
2022/03/25 05:40:49;;;;;;;0.30;0.30;;;6.20;59.10;;;;;;5053631;28;20636;-64
2022/03/25 05:43:14;;;;;;;0.40;0.40;;;6.20;58.80;;;;;;5054281;28;20231;-64
2022/03/25 05:45:40;;;;;;;0.30;0.30;;;6.20;58.70;;;;;;5053847;28;20166;-64
2022/03/25 05:48:06;;;;;;;0.40;0.40;;;6.30;58.40;;;;;;5053794;28;20190;-65
2022/03/25 05:50:32;;;;;;;0.30;0.30;;;6.40;57.60;;;;;;5053619;28;20519;-64
2022/03/25 05:52:57;;;;;;;0.30;0.30;;;6.50;57.80;;;;;;5053809;28;20404;-65
2022/03/25 05:55:24;;;;;;;0.30;0.30;;;6.70;57.40;;;;;;5053819;28;20170;-65
2022/03/25 05:57:50;;;;;;;0.40;0.40;;;6.80;57.30;;;;;;5053643;28;20277;-65
2022/03/25 06:00:16;;;;;;;0.30;0.30;;;6.80;56.40;;;;;;5051132;28;20562;-64
2022/03/25 06:02:43;;;;;;;0.30;0.30;;;6.90;57.10;;;;;;5053804;28;20232;-63
2022/03/25 06:05:09;;;;;;;0.40;0.40;;;6.90;57.10;;;;;;5053451;28;20186;-64
2022/03/25 06:07:39;;;;;;;1.08;1.08;;;7.00;56.70;;;;;;5053635;28;20224;-64
2022/03/25 06:10:07;;;;;;;0.40;0.40;;;7.10;56.70;;;;;;5053273;28;20171;-64
2022/03/25 06:12:34;;;;;;;0.40;0.40;;;7.10;56.40;;;;;;5053547;28;20682;-65
2022/03/25 06:14:59;;;;;;;0.40;0.40;;;7.20;56.70;;;;;;5053585;28;20233;-65
2022/03/25 06:17:26;;;;;;;0.37;0.37;;;7.20;56.60;;;;;;5053458;28;20605;-65
2022/03/25 06:19:52;;;;;;;0.38;0.38;;;7.10;56.80;;;;;;5053491;28;20189;-64
2022/03/25 06:22:18;;;;;;;0.68;0.68;;;7.40;56.50;;;;;;5053440;28;20174;-64
2022/03/25 06:24:44;;;;;;;0.40;0.40;;;7.50;56.60;;;;;;5053568;28;20227;-64
2022/03/25 06:27:10;;;;;;;0.50;0.50;;;7.60;56.30;;;;;;5053168;28;20572;-63
2022/03/25 06:29:37;;;;;;;0.40;0.40;;;7.80;55.90;;;;;;5053323;28;20174;-64
2022/03/25 06:32:05;;;;;;;0.30;0.30;;;7.80;56.20;;;;;;5053056;28;20632;-64
2022/03/25 06:34:31;;;;;;;0.40;0.40;;;7.80;56.50;;;;;;5053176;28;20206;-64
2022/03/25 06:36:57;;;;;;;0.30;0.30;;;7.90;54.90;;;;;;5053274;28;20221;-69
2022/03/25 06:39:22;;;;;;;0.50;0.50;;;8.00;66.10;;;;;;5050752;28;20892;-69
2022/03/25 06:41:48;;;;;;;0.40;0.40;;;8.60;73.20;;;;;;5052350;28;20253;-67
2022/03/25 06:44:14;;;;;;;0.40;0.40;;;10.10;65.50;;;;;;5053494;28;20201;-71
2022/03/25 06:46:40;;;;;;;0.30;0.30;;;12.20;54.60;;;;;;5051320;28;20186;-77
2022/03/25 06:49:06;;;;;;;0.57;0.57;;;14.10;52.80;;;;;;5053252;28;20178;-71
2022/03/25 06:51:32;;;;;;;2.70;0.87;;;15.30;46.20;;;;;;5052465;28;20671;-66
2022/03/25 06:53:58;;;;;;;0.60;0.60;;;15.20;41.40;;;;;;5052729;28;20797;-67
2022/03/25 06:56:24;;;;;;;0.30;0.30;;;14.90;41.70;;;;;;5052496;28;20507;-65
2022/03/25 06:58:50;;;;;;;0.30;0.30;;;14.50;40.90;;;;;;5051554;28;20909;-66
2022/03/25 07:01:16;;;;;;;1.37;1.37;;;14.40;41.80;;;;;;5052866;28;20483;-66
2022/03/25 07:03:42;;;;;;;1.27;1.27;;;14.50;43.40;;;;;;5053102;28;20491;-66
2022/03/25 07:06:09;;;;;;;0.60;0.60;;;15.20;41.60;;;;;;5053160;28;20439;-66
2022/03/25 07:08:35;;;;;;;0.70;0.70;;;16.10;41.70;;;;;;5052815;28;20416;-66
2022/03/25 07:11:01;;;;;;;0.47;0.47;;;17.10;39.10;;;;;;5053872;28;20411;-67
2022/03/25 07:13:28;;;;;;;0.60;0.60;;;18.10;37.80;;;;;;5056918;28;20829;-67
2022/03/25 07:15:54;;;;;;;0.30;0.30;;;18.60;36.50;;;;;;5056903;28;20488;-66
2022/03/25 07:18:20;;;;;;;0.37;0.37;;;19.20;35.90;;;;;;5056554;28;20420;-67
2022/03/25 07:20:45;;;;;;;0.40;0.40;;;19.60;35.30;;;;;;5056449;28;20452;-66
2022/03/25 07:23:11;;;;;;;0.80;0.80;;;20.40;34.80;;;;;;5057051;28;20591;-67
2022/03/25 07:25:37;;;;;;;1.17;1.17;;;21.00;34.40;;;;;;5056415;28;20170;-66
2022/03/25 07:28:03;;;;;;;0.43;0.43;;;21.60;33.30;;;;;;5054825;28;20416;-67
2022/03/25 07:30:29;;;;;;;0.63;0.63;;;22.10;32.30;;;;;;5055027;28;20564;-67
2022/03/25 07:32:54;;;;;;;0.40;0.40;;;22.50;30.60;;;;;;5056077;28;20400;-67
2022/03/25 07:35:21;;;;;;;2.60;2.50;;;22.50;32.00;;;;;;5056197;28;20166;-67
2022/03/25 07:37:47;;;;;;;6.73;1.77;;;22.90;30.30;;;;;;5056523;28;20273;-67
2022/03/25 07:40:14;;;;;;;0.40;0.40;;;23.20;30.10;;;;;;5056325;28;20402;-67
2022/03/25 07:42:41;;;;;;;1.27;0.73;;;23.20;29.80;;;;;;5056439;28;20412;-67
2022/03/25 07:45:08;;;;;;;0.30;0.30;;;23.20;30.00;;;;;;5056610;28;20396;-67
2022/03/25 07:47:41;;;;;;;0.63;0.63;;;23.50;29.40;;;;;;5056097;28;20421;-67
2022/03/25 07:50:09;;;;;;;1.63;1.27;;;23.80;29.60;;;;;;5056165;28;20399;-67
2022/03/25 07:52:35;;;;;;;1.37;1.27;;;23.80;29.70;;;;;;5056100;28;20400;-68
2022/03/25 07:55:00;;;;;;;0.60;0.60;;;24.20;26.60;;;;;;5056228;28;20471;-67
2022/03/25 07:57:26;;;;;;;1.07;1.07;;;24.50;25.10;;;;;;5056042;28;20424;-67
2022/03/25 07:59:52;;;;;;;1.73;1.40;;;24.60;25.10;;;;;;5055882;28;20182;-66
2022/03/25 08:02:17;;;;;;;2.37;1.40;;;25.40;23.70;;;;;;5056154;28;20174;-67
2022/03/25 08:04:43;;;;;;;0.50;0.50;;;25.50;23.80;;;;;;5056039;28;20176;-67
2022/03/25 08:07:09;;;;;;;1.17;1.17;;;25.90;23.00;;;;;;5056258;28;20201;-67
2022/03/25 08:09:34;;;;;;;0.40;0.40;;;26.80;22.30;;;;;;5055773;28;20204;-67
2022/03/25 08:12:01;;;;;;;1.27;1.17;;;27.10;22.50;;;;;;5055697;28;20166;-66
2022/03/25 08:14:27;;;;;;;0.40;0.40;;;27.20;22.70;;;;;;5055830;28;20196;-67
2022/03/25 08:16:53;;;;;;;3.17;2.90;;;27.00;22.00;;;;;;5055710;28;20432;-67
2022/03/25 08:19:19;;;;;;;0.80;0.80;;;26.60;22.10;;;;;;5053558;28;20387;-67
2022/03/25 08:21:44;;;;;;;3.07;2.90;;;27.10;22.30;;;;;;5055181;28;20405;-67
2022/03/25 08:29:39;;;;;;;0.40;0.40;;;28.10;21.90;;;;;;5054569;28;20930;-67
2022/03/25 08:32:05;;;;;;;0.77;0.70;;;27.90;21.20;;;;;;5054697;28;20405;-67
2022/03/25 08:34:30;;;;;;;1.73;1.27;;;28.00;21.20;;;;;;5052301;28;20205;-67
2022/03/25 08:36:56;;;;;;;0.70;0.70;;;27.70;21.20;;;;;;5054368;28;20949;-67
2022/03/25 08:39:24;;;;;;;1.23;1.23;;;28.00;21.20;;;;;;5054874;28;20587;-68
2022/03/25 08:41:50;;;;;;;1.93;1.83;;;28.70;21.10;;;;;;5055324;28;20170;-68
2022/03/25 08:44:16;;;;;;;2.60;2.10;;;28.80;20.60;;;;;;5055227;28;20406;-68
2022/03/25 08:46:41;;;;;;;4.37;1.80;;;29.40;20.60;;;;;;5055061;28;20303;-68
2022/03/25 08:49:07;;;;;;;0.40;0.40;;;29.80;20.60;;;;;;5055061;28;20178;-66
2022/03/25 08:51:33;;;;;;;0.83;0.83;;;30.20;20.20;;;;;;5054955;28;20170;-66
2022/03/25 08:53:59;;;;;;;0.30;0.30;;;30.40;20.20;;;;;;5055190;28;20190;-66
2022/03/25 08:56:25;;;;;;;0.70;0.70;;;30.30;19.30;;;;;;5054967;28;20424;-66
2022/03/25 08:58:54;;;;;;;2.77;1.20;;;30.40;19.70;;;;;;5054798;28;20546;-66
2022/03/25 09:01:20;;;;;;;1.93;1.83;;;30.90;19.60;;;;;;5054636;28;20198;-66
2022/03/25 09:03:46;;;;;;;0.60;0.60;;;31.00;19.00;;;;;;5054909;28;20405;-65
2022/03/25 09:06:12;;;;;;;2.00;1.90;;;30.80;19.50;;;;;;5054686;28;20404;-65
2022/03/25 09:08:38;;;;;;;1.20;0.60;;;30.70;19.00;;;;;;5054768;28;20408;-66
2022/03/25 09:11:03;;;;;;;0.97;0.83;;;30.80;19.10;;;;;;5054547;28;20397;-66
2022/03/25 09:13:29;;;;;;;0.97;0.90;;;31.00;19.90;;;;;;5054404;28;20212;-66
2022/03/25 09:15:55;;;;;;;1.03;1.03;;;31.60;19.80;;;;;;5053585;28;20513;-65
2022/03/25 09:18:21;;;;;;;1.27;1.27;;;31.90;19.30;;;;;;5053630;28;20189;-64
2022/03/25 09:20:47;;;;;;;0.90;0.90;;;32.10;19.50;;;;;;5054599;28;20174;-66
2022/03/25 09:23:13;;;;;;;2.30;2.13;;;32.50;18.80;;;;;;5054918;28;20483;-65
2022/03/25 09:25:39;;;;;;;0.90;0.90;;;32.80;18.90;;;;;;5054926;28;20436;-65
2022/03/25 09:28:05;;;;;;;0.97;0.57;;;32.80;18.70;;;;;;5054630;28;20430;-65
2022/03/25 09:30:31;;;;;;;1.20;1.20;;;32.70;18.50;;;;;;5054225;28;20396;-65
2022/03/25 09:32:57;;;;;;;1.13;1.13;;;32.50;18.30;;;;;;5054294;28;20408;-66
2022/03/25 09:35:22;;;;;;;0.60;0.60;;;32.30;18.50;;;;;;5054002;28;20198;-70
2022/03/25 09:37:50;;;;;;;0.53;0.53;;;32.60;18.40;;;;;;5051894;28;20186;-65
2022/03/25 09:40:23;;;;;;;0.40;0.40;;;32.60;18.90;;;;;;5054313;28;20251;-63
2022/03/25 09:42:51;;;;;;;0.70;0.70;;;32.50;18.70;;;;;;5054144;28;20890;-64
2022/03/25 09:45:18;;;;;;;1.30;1.23;;;32.30;18.00;;;;;;5053937;28;20756;-64
2022/03/25 09:47:45;;;;;;;1.43;0.53;;;32.20;18.40;;;;;;5051916;28;20425;-65
2022/03/25 09:50:13;;;;;;;0.97;0.97;;;32.30;17.80;;;;;;5053809;28;20899;-65
2022/03/25 09:52:40;;;;;;;1.07;0.80;;;31.80;18.00;;;;;;5054052;28;20392;-72
2022/03/25 09:55:07;;;;;;;3.20;1.70;;;31.70;18.70;;;;;;5053917;28;20451;-70
2022/03/25 09:57:33;;;;;;;0.50;0.50;;;32.20;17.90;;;;;;5053403;28;20417;-71
2022/03/25 09:59:59;;;;;;;1.57;1.47;;;32.30;17.70;;;;;;5050956;28;20421;-69
2022/03/25 10:02:25;;;;;;;1.33;1.33;;;31.10;18.30;;;;;;5053107;28;20409;-63
2022/03/25 10:04:52;;;;;;;0.57;0.57;;;30.80;18.20;;;;;;5052491;28;20804;-69
2022/03/25 10:07:47;;;;;;;0.50;0.50;;;29.40;18.30;;;;;;5052698;28;20428;-65
2022/03/25 10:10:23;;;;;;;1.63;1.53;;;28.60;19.40;;;;;;5053367;28;20440;-65
2022/03/25 10:12:51;;;;;;;1.53;1.27;;;29.10;19.40;;;;;;5051522;28;20400;-66
2022/03/25 10:15:21;;;;;;;1.83;1.70;;;29.70;19.00;;;;;;5054033;28;20472;-65
2022/03/25 10:18:04;;;;;;;1.10;1.10;;;29.20;19.60;;;;;;5053467;28;20515;-64
2022/03/25 10:20:38;;;;;;;1.03;0.97;;;28.20;19.40;;;;;;5052035;28;20428;-66
2022/03/25 10:23:04;;;;;;;1.60;1.50;;;27.90;21.20;;;;;;5052583;28;20400;-65
2022/03/25 10:25:33;;;;;;;2.30;2.20;;;28.80;19.90;;;;;;5053709;28;20436;-66
2022/03/25 10:27:59;;;;;;;0.60;0.60;;;28.80;19.00;;;;;;5051176;28;20423;-64
2022/03/25 10:30:41;;;;;;;1.03;1.03;;;28.70;19.20;;;;;;5053660;28;20428;-65
2022/03/25 10:33:20;;;;;;;1.53;1.43;;;28.70;19.20;;;;;;5053386;28;20401;-65
2022/03/25 10:36:07;;;;;;;0.80;0.80;;;29.30;19.40;;;;;;5053579;28;20417;-65
2022/03/25 10:38:58;;;;;;;0.40;0.40;;;29.00;18.60;;;;;;5054009;28;20448;-65
2022/03/25 10:41:41;;;;;;;2.40;2.20;;;27.90;19.70;;;;;;5053030;28;20403;-65
2022/03/25 10:44:09;;;;;;;0.30;0.30;;;27.70;19.10;;;;;;5053695;28;20898;-65
2022/03/25 10:46:40;;;;;;;0.50;0.50;;;27.20;19.50;;;;;;5055866;28;20451;-65
2022/03/25 10:49:08;;;;;;;0.77;0.77;;;25.90;20.20;;;;;;5057799;28;20419;-65
2022/03/25 10:51:36;;;;;;;0.40;0.40;;;25.80;20.60;;;;;;5057109;28;20499;-65
2022/03/25 10:54:07;;;;;;;3.13;1.70;;;25.50;19.90;;;;;;5057565;28;20509;-64
2022/03/25 10:56:56;;;;;;;0.93;0.93;;;25.80;20.90;;;;;;5057227;28;20463;-65
2022/03/25 10:59:26;;;;;;;1.53;1.53;;;26.70;20.10;;;;;;5057422;28;20392;-64
2022/03/25 11:01:54;;;;;;;0.77;0.60;;;26.70;19.60;;;;;;5056762;28;20424;-64
2022/03/25 11:04:20;;;;;;;5.67;1.90;;;26.30;19.90;;;;;;5057016;28;20400;-64
2022/03/25 11:06:47;;;;;;;0.60;0.50;;;25.30;20.40;;;;;;5056579;28;20424;-64
2022/03/25 11:09:15;;;;;;;0.70;0.70;;;24.90;21.30;;;;;;5057321;28;20444;-64
2022/03/25 11:11:42;;;;;;;0.40;0.40;;;24.50;21.20;;;;;;5056791;28;20743;-65
2022/03/25 11:14:09;;;;;;;0.63;0.63;;;23.70;22.30;;;;;;5057317;28;20454;-64
2022/03/25 11:16:39;;;;;;;1.43;0.90;;;23.30;21.90;;;;;;5056787;28;20417;-65
2022/03/25 11:19:06;;;;;;;0.30;0.30;;;21.70;22.60;;;;;;5056927;28;20395;-64
2022/03/25 11:21:35;;;;;;;0.60;0.50;;;20.80;23.90;;;;;;5056529;28;20423;-65
2022/03/25 11:24:04;;;;;;;0.60;0.50;;;20.60;23.00;;;;;;5056693;28;20404;-65
2022/03/25 11:26:30;;;;;;;0.40;0.40;;;19.80;24.20;;;;;;5056020;28;20420;-64
2022/03/25 11:28:59;;;;;;;0.30;0.30;;;19.80;24.70;;;;;;5055103;28;20403;-65
2022/03/25 11:31:25;;;;;;;0.57;0.57;;;19.50;24.60;;;;;;5056255;28;20412;-64
2022/03/25 11:34:09;;;;;;;0.50;0.50;;;18.80;24.60;;;;;;5056411;28;20448;-65
2022/03/25 11:36:40;;;;;;;1.27;0.83;;;18.70;26.00;;;;;;5056425;28;20551;-64
2022/03/25 11:39:16;;;;;;;2.10;0.73;;;18.80;24.90;;;;;;5054548;28;20411;-65
2022/03/25 11:41:42;;;;;;;0.50;0.50;;;18.40;25.60;;;;;;5055584;28;20410;-64
2022/03/25 11:44:18;;;;;;;0.83;0.83;;;18.00;26.40;;;;;;5055117;28;20563;-64
2022/03/25 11:46:59;;;;;;;0.30;0.30;;;18.10;26.90;;;;;;5054995;28;20429;-65
2022/03/25 11:49:29;;;;;;;0.77;0.50;;;18.70;26.80;;;;;;5055995;28;20762;-65
2022/03/25 11:51:55;;;;;;;1.33;0.93;;;19.40;25.80;;;;;;5054068;28;20845;-65
2022/03/25 11:54:40;;;;;;;0.30;0.30;;;20.20;25.00;;;;;;5056259;28;20479;-64
2022/03/25 11:57:27;;;;;;;1.37;1.07;;;20.60;24.60;;;;;;5055652;28;20872;-64
2022/03/25 11:59:56;;;;;;;1.87;1.57;;;20.20;25.10;;;;;;5054074;28;20444;-65
2022/03/25 12:02:29;;;;;;;0.50;0.50;;;19.20;25.00;;;;;;5056142;28;20401;-65
2022/03/25 12:04:57;;;;;;;0.80;0.80;;;18.80;25.70;;;;;;5055895;28;20452;-64
2022/03/25 12:07:25;;;;;;;2.80;1.10;;;18.60;26.00;;;;;;5055683;28;20461;-65
2022/03/25 12:09:51;;;;;;;0.30;0.30;;;18.20;26.00;;;;;;5054160;28;20443;-66
2022/03/25 12:12:17;;;;;;;0.40;0.40;;;18.30;25.70;;;;;;5054252;28;20409;-64
2022/03/25 12:15:10;;;;;;;0.50;0.50;;;18.70;25.60;;;;;;5055088;28;20458;-64
2022/03/25 12:17:36;;;;;;;1.03;0.70;;;19.00;25.30;;;;;;5055523;28;20430;-65
2022/03/25 12:20:03;;;;;;;0.77;0.77;;;19.30;26.90;;;;;;5055335;28;20411;-65
2022/03/25 12:22:33;;;;;;;0.60;0.60;;;19.90;25.30;;;;;;5055998;28;20395;-65
2022/03/25 12:25:20;;;;;;;0.30;0.30;;;20.20;24.70;;;;;;5055573;28;20760;-65
2022/03/25 12:27:46;;;;;;;0.73;0.73;;;20.20;24.60;;;;;;5055455;28;20519;-65
2022/03/25 12:30:14;;;;;;;0.53;0.53;;;20.00;24.20;;;;;;5055400;28;20401;-65
2022/03/25 12:32:40;;;;;;;0.70;0.70;;;20.30;25.60;;;;;;5055446;28;20832;-65
2022/03/25 12:35:16;;;;;;;0.40;0.40;;;20.20;24.50;;;;;;5055365;28;20462;-65
2022/03/25 12:37:58;;;;;;;0.93;0.93;;;19.70;24.70;;;;;;5055394;28;20425;-65
2022/03/25 12:40:27;;;;;;;0.30;0.30;;;19.40;24.80;;;;;;5055087;28;20400;-65
2022/03/25 12:43:00;;;;;;;0.30;0.30;;;19.30;24.50;;;;;;5055100;28;20416;-65
2022/03/25 12:45:30;;;;;;;0.30;0.30;;;19.40;24.60;;;;;;5055360;28;20434;-65
2022/03/25 12:47:57;;;;;;;0.30;0.30;;;19.00;25.10;;;;;;5055253;28;20506;-65
2022/03/25 12:50:27;;;;;;;0.50;0.50;;;18.60;26.00;;;;;;5054768;28;20408;-65
2022/03/25 12:52:59;;;;;;;0.30;0.30;;;18.60;25.70;;;;;;5055475;28;20800;-65
2022/03/25 12:55:25;;;;;;;0.93;0.70;;;18.80;25.30;;;;;;5054981;28;20552;-65
2022/03/25 12:57:51;;;;;;;0.40;0.40;;;18.90;26.10;;;;;;5054782;28;20452;-65
2022/03/25 13:00:17;;;;;;;4.47;1.77;;;19.50;25.80;;;;;;5054597;28;20489;-65